Bismarck, ND (58501)

4:28 AM CDT on August 21, 2017 (GMT -0500)
Apple Meadows | | Change Station

Elev 1732 ft 46.81 °N, 100.67 °W | Updated 1 minute ago

Rain
Rain
56.3 °F
Feels Like 56.3 °F
N
4.0
Wind Variable Wind from NNW

Today
High -- | Low -- °F
--% Chance of Precip.
Yesterday
High -- | Low -- °F
Precip. -- in
Pressure 30.04 in
Visibility 10.0 miles
Clouds Overcast 8500 ft
Dew Point 50 °F
Humidity 81%
Rainfall 0.02 in
Snow Depth Not available.
6:48 AM 8:42 PM
Waning Crescent, 0% visible
METAR KBIS 210852Z AUTO 32020G28KT 10SM VCTS OVC085 14/09 A3005 RMK AO2 PK WND 32028/0850 LTG DSNT SW-N PRESRR SLP173 T01440089 53012
Pressure 30.04 in
Visibility 10.0 miles
Clouds Overcast 8500 ft
Dew Point 50 °F
Humidity 81%
Rainfall 0.02 in
Snow Depth Not available.
6:48 AM 8:42 PM
Waning Crescent, 0% visible
METAR KBIS 210852Z AUTO 32020G28KT 10SM VCTS OVC085 14/09 A3005 RMK AO2 PK WND 32028/0850 LTG DSNT SW-N PRESRR SLP173 T01440089 53012

Get Severe Weather Alerts

Thanks for signing up!

Be on the lookout for a verification email in your inbox.

You'll start receiving the daily forecast at 6 AM.

×

10-Day Weather Forecast

Almanac

Astronomy

Aug. 21, 2017 Rise Set
Actual Time
Civil Twilight
Nautical Twilight
Astronomical Twilight
Moon
Length of Visible Light
Length of Day
Tomorrow will be .
, % of the Moon is Illuminated

Today's Extremes

State Highs State Lows

Community

WunderPhotos

Category 6

Welcome to Category 6. This is the collective home for Weather Underground's featured writeups by Dr. Jeff Masters (right), Bob Henson (left), Chris Burt, and other regular contributors.

Nearby

Air Quality

  Air Quality AQ Index Pollutant
Not available.

Snow Depth

Station Depth Elevation

Earthquake Activity

City Distance Mag. Time & Date
Minimum magnitude displayed is 2.5.

Coastal Water Temperatures

Place Temperature

Stations

Nearby Weather Stations

Station Location Temp. Windchill Dew Point Humidity Wind Precip. Elev Updated Type
                   

Watches & Warnings

There are currently no watches in effect.